Time;durP1;ratioP1;P1;durP2;ratioP2;P2;SDS_P1;SDS_P2;PMS_P1;PMS_P2;Temp;Humidity;BMP_temperature;BMP_pressure;BME280_temperature;BME280_humidity;BME280_pressure;Samples;Min_cycle;Max_cycle;Signal;HPM_P1;HPM_P2
2022/03/24 00:02:11;;;;;;;22.88;19.90;;;13.50;37.40;;;;;;5134390;27;20203;-59
2022/03/24 00:04:38;;;;;;;20.98;18.15;;;13.50;36.30;;;;;;5134299;27;20718;-59
2022/03/24 00:07:05;;;;;;;19.27;17.20;;;13.50;35.50;;;;;;5134270;27;20224;-59
2022/03/24 00:09:32;;;;;;;21.40;17.90;;;13.60;34.90;;;;;;5133070;27;20291;-59
2022/03/24 00:12:00;;;;;;;21.05;18.92;;;13.60;34.30;;;;;;5133487;27;20203;-59
2022/03/24 00:14:28;;;;;;;22.02;18.55;;;13.60;33.60;;;;;;5134369;27;20209;-59
2022/03/24 00:16:55;;;;;;;26.27;19.83;;;13.50;34.50;;;;;;5134319;27;20300;-59
2022/03/24 00:19:22;;;;;;;29.67;20.27;;;13.50;35.00;;;;;;5134217;27;20198;-59
2022/03/24 00:21:49;;;;;;;28.05;21.73;;;13.60;35.50;;;;;;5134030;27;20325;-59
2022/03/24 00:24:16;;;;;;;26.58;21.40;;;13.60;35.50;;;;;;5132685;27;20790;-59
2022/03/24 00:26:43;;;;;;;23.95;20.65;;;13.60;35.60;;;;;;5133900;27;20782;-59
2022/03/24 00:29:10;;;;;;;25.65;20.80;;;13.70;35.70;;;;;;5133837;27;20241;-59
2022/03/24 00:31:39;;;;;;;27.92;21.08;;;13.70;36.00;;;;;;5134078;27;20247;-59
2022/03/24 00:34:06;;;;;;;25.20;21.02;;;13.70;36.10;;;;;;5133941;27;20281;-59
2022/03/24 00:36:34;;;;;;;26.20;21.50;;;13.70;36.20;;;;;;5133874;27;20294;-59
2022/03/24 00:39:01;;;;;;;24.77;21.65;;;13.70;36.30;;;;;;5132598;27;20209;-59
2022/03/24 00:41:28;;;;;;;25.55;20.55;;;13.70;36.20;;;;;;5133845;27;20199;-59
2022/03/24 00:43:55;;;;;;;26.85;22.02;;;13.70;36.10;;;;;;5133781;27;20226;-59
2022/03/24 00:46:23;;;;;;;25.67;20.67;;;13.70;36.00;;;;;;5133912;27;20209;-59
2022/03/24 00:48:53;;;;;;;27.58;20.42;;;13.70;36.10;;;;;;5133675;27;20539;-59
2022/03/24 00:51:21;;;;;;;27.52;21.40;;;13.60;35.90;;;;;;5133751;27;20209;-59
2022/03/24 00:53:48;;;;;;;25.13;21.00;;;13.60;36.30;;;;;;5133729;27;20221;-59
2022/03/24 00:56:15;;;;;;;26.05;21.73;;;13.50;36.30;;;;;;5132440;27;20199;-59
2022/03/24 00:58:41;;;;;;;28.98;21.75;;;13.50;37.20;;;;;;5133770;27;20209;-59
2022/03/24 01:01:12;;;;;;;26.63;20.80;;;13.10;37.60;;;;;;5133705;27;20209;-59
2022/03/24 01:03:39;;;;;;;29.55;20.90;;;13.10;37.50;;;;;;5133505;27;20226;-59
2022/03/24 01:06:08;;;;;;;24.50;20.20;;;13.00;38.20;;;;;;5133687;27;20217;-59
2022/03/24 01:08:35;;;;;;;25.77;20.15;;;13.00;37.70;;;;;;5133651;27;20208;-59
2022/03/24 01:11:05;;;;;;;28.73;20.88;;;13.10;37.60;;;;;;5132225;27;20209;-59
2022/03/24 01:13:34;;;;;;;27.40;21.92;;;13.20;37.40;;;;;;5133421;27;20207;-59
2022/03/24 01:16:01;;;;;;;28.02;21.45;;;13.30;37.30;;;;;;5133451;27;20207;-59
2022/03/24 01:18:29;;;;;;;23.65;19.75;;;13.30;37.40;;;;;;5133541;27;20220;-59
2022/03/24 01:20:55;;;;;;;26.30;21.23;;;13.30;37.30;;;;;;5133511;27;20202;-59
2022/03/24 01:23:25;;;;;;;25.70;21.00;;;13.20;38.20;;;;;;5134045;27;20503;-58
2022/03/24 01:25:54;;;;;;;25.83;20.58;;;12.70;38.80;;;;;;5136314;27;20202;-58
2022/03/24 01:28:22;;;;;;;25.85;21.00;;;12.50;39.60;;;;;;5137014;27;20222;-57
2022/03/24 01:30:48;;;;;;;25.70;20.13;;;12.40;39.50;;;;;;5137327;27;20612;-59
2022/03/24 01:33:15;;;;;;;24.40;20.20;;;12.50;39.20;;;;;;5137371;27;20447;-59
2022/03/24 01:35:42;;;;;;;28.45;21.58;;;12.70;38.70;;;;;;5137611;27;20198;-58
2022/03/24 01:38:09;;;;;;;27.45;21.08;;;12.80;38.20;;;;;;5137338;27;20211;-59
2022/03/24 01:40:38;;;;;;;24.45;19.40;;;12.90;38.10;;;;;;5136044;27;20226;-59
2022/03/24 01:43:07;;;;;;;27.65;22.02;;;12.80;38.50;;;;;;5136942;27;20561;-58
2022/03/24 01:45:34;;;;;;;29.80;20.75;;;12.70;38.30;;;;;;5137082;27;20261;-58
2022/03/24 01:48:01;;;;;;;25.48;20.70;;;12.60;38.00;;;;;;5137035;27;20203;-59
2022/03/24 01:50:28;;;;;;;22.58;19.33;;;12.50;38.50;;;;;;5137154;27;20198;-60
2022/03/24 01:52:55;;;;;;;26.75;21.30;;;12.40;38.80;;;;;;5137021;27;20755;-58
2022/03/24 01:55:23;;;;;;;26.05;20.40;;;12.30;38.60;;;;;;5135618;27;20232;-58
2022/03/24 01:57:51;;;;;;;26.10;20.92;;;12.30;38.60;;;;;;5136697;27;20632;-59
2022/03/24 02:00:19;;;;;;;28.50;21.08;;;12.30;38.70;;;;;;5136959;27;20205;-59
2022/03/24 02:02:46;;;;;;;27.75;23.15;;;12.20;38.70;;;;;;5136896;27;20653;-59
2022/03/24 02:05:13;;;;;;;24.63;20.08;;;12.20;38.80;;;;;;5136652;27;20231;-59
2022/03/24 02:07:39;;;;;;;29.17;20.67;;;12.20;38.90;;;;;;5136765;27;20203;-59
2022/03/24 02:10:08;;;;;;;27.13;22.08;;;12.20;39.30;;;;;;5135306;27;20206;-59
2022/03/24 02:12:35;;;;;;;29.10;21.40;;;12.10;39.10;;;;;;5136471;27;20278;-59
2022/03/24 02:15:04;;;;;;;29.80;22.65;;;12.10;38.80;;;;;;5136537;27;20305;-57
2022/03/24 02:17:34;;;;;;;28.10;21.40;;;12.00;39.00;;;;;;5136649;27;20202;-59
2022/03/24 02:20:01;;;;;;;28.25;21.83;;;12.10;39.00;;;;;;5136363;27;20199;-58
2022/03/24 02:22:30;;;;;;;27.92;21.55;;;12.10;38.90;;;;;;5136399;27;20201;-60
2022/03/24 02:24:57;;;;;;;28.15;21.73;;;12.10;38.60;;;;;;5135002;27;20234;-59
2022/03/24 02:27:24;;;;;;;27.60;21.08;;;12.10;38.80;;;;;;5136199;27;20582;-59
2022/03/24 02:29:52;;;;;;;32.05;22.42;;;12.10;38.80;;;;;;5136180;27;20227;-59
2022/03/24 02:32:21;;;;;;;24.27;21.55;;;12.10;38.70;;;;;;5136214;27;20289;-59
2022/03/24 02:34:48;;;;;;;30.63;21.10;;;12.10;38.80;;;;;;5135699;27;20213;-58
2022/03/24 02:37:19;;;;;;;26.63;20.67;;;12.10;38.90;;;;;;5136021;27;20203;-59
2022/03/24 02:39:49;;;;;;;28.75;21.80;;;12.00;38.90;;;;;;5134697;27;20207;-59
2022/03/24 02:42:18;;;;;;;24.02;20.65;;;12.10;38.90;;;;;;5135959;27;20294;-59
2022/03/24 02:44:47;;;;;;;28.23;21.35;;;12.10;39.10;;;;;;5135941;27;20321;-59
2022/03/24 02:47:16;;;;;;;28.00;21.55;;;12.10;39.10;;;;;;5136039;27;20198;-59
2022/03/24 02:49:47;;;;;;;28.55;21.50;;;12.10;39.20;;;;;;5135843;27;20565;-59
2022/03/24 02:52:14;;;;;;;27.58;21.50;;;12.10;39.40;;;;;;5135865;27;20649;-59
2022/03/24 02:54:41;;;;;;;28.05;21.58;;;12.10;39.40;;;;;;5134622;27;20218;-59
2022/03/24 02:57:11;;;;;;;30.17;21.75;;;12.00;39.60;;;;;;5135626;27;20247;-58
2022/03/24 02:59:37;;;;;;;23.35;20.05;;;12.00;39.50;;;;;;5135630;27;20598;-59
2022/03/24 03:02:07;;;;;;;25.52;21.63;;;12.00;39.80;;;;;;5135849;27;20250;-57
2022/03/24 03:04:34;;;;;;;27.60;21.27;;;11.90;39.60;;;;;;5135379;27;20232;-57
2022/03/24 03:07:02;;;;;;;28.17;21.25;;;11.80;39.50;;;;;;5135481;27;20205;-57
2022/03/24 03:09:30;;;;;;;31.08;22.60;;;11.80;39.50;;;;;;5134082;27;20217;-57
2022/03/24 03:11:58;;;;;;;28.55;21.67;;;11.80;39.70;;;;;;5135393;27;20206;-57
2022/03/24 03:14:29;;;;;;;34.65;23.90;;;11.80;39.80;;;;;;5135465;27;20610;-57
2022/03/24 03:16:56;;;;;;;29.60;23.60;;;11.90;39.70;;;;;;5135360;27;20202;-57
2022/03/24 03:19:23;;;;;;;27.77;21.63;;;11.90;39.70;;;;;;5135336;27;20209;-57
2022/03/24 03:21:51;;;;;;;28.70;22.17;;;11.90;39.50;;;;;;5135201;27;20247;-57
2022/03/24 03:24:19;;;;;;;29.75;23.33;;;11.90;39.20;;;;;;5133909;27;20349;-57
2022/03/24 03:26:46;;;;;;;32.25;23.73;;;11.90;38.80;;;;;;5135123;27;20219;-58
2022/03/24 03:29:13;;;;;;;31.90;23.17;;;11.80;38.90;;;;;;5134862;27;20588;-57
2022/03/24 03:31:42;;;;;;;31.23;23.17;;;11.70;39.40;;;;;;5134979;27;20222;-57
2022/03/24 03:34:10;;;;;;;29.70;22.27;;;11.70;39.50;;;;;;5134960;27;20653;-57
2022/03/24 03:36:38;;;;;;;34.75;22.63;;;11.80;39.40;;;;;;5135050;27;20305;-57
2022/03/24 03:39:06;;;;;;;31.85;22.98;;;11.80;39.30;;;;;;5133599;27;20203;-57
2022/03/24 03:41:34;;;;;;;25.70;21.65;;;11.90;39.00;;;;;;5134825;27;20202;-57
2022/03/24 03:44:01;;;;;;;29.50;21.77;;;11.90;38.80;;;;;;5134435;27;20202;-59
2022/03/24 03:46:28;;;;;;;32.38;23.00;;;11.90;38.70;;;;;;5134301;27;20203;-57
2022/03/24 03:48:56;;;;;;;37.22;23.75;;;12.00;38.90;;;;;;5134340;27;20665;-57
2022/03/24 03:51:23;;;;;;;30.20;24.05;;;12.00;39.10;;;;;;5134644;27;20728;-58
2022/03/24 03:53:50;;;;;;;30.45;23.40;;;12.10;39.10;;;;;;5134615;27;20203;-58
2022/03/24 03:56:17;;;;;;;29.35;22.63;;;12.10;39.30;;;;;;5133182;27;20217;-58
2022/03/24 03:58:43;;;;;;;29.50;22.58;;;12.10;39.20;;;;;;5134193;27;20199;-58
2022/03/24 04:01:10;;;;;;;32.95;23.20;;;12.10;39.10;;;;;;5134522;27;20205;-57
2022/03/24 04:03:39;;;;;;;30.42;23.60;;;12.10;39.50;;;;;;5134461;27;20257;-57
2022/03/24 04:06:10;;;;;;;35.85;23.50;;;12.00;39.80;;;;;;5134443;27;20236;-57
2022/03/24 04:08:37;;;;;;;33.42;22.85;;;11.90;40.00;;;;;;5134370;27;20338;-57
2022/03/24 04:11:07;;;;;;;28.88;22.35;;;11.90;40.00;;;;;;5133104;27;20207;-57
2022/03/24 04:13:34;;;;;;;31.98;23.08;;;11.90;39.90;;;;;;5134169;27;20289;-57
2022/03/24 04:16:02;;;;;;;32.38;22.92;;;11.90;40.00;;;;;;5134294;27;20206;-58
2022/03/24 04:18:29;;;;;;;32.50;22.90;;;11.80;40.10;;;;;;5134109;27;20629;-57
2022/03/24 04:20:56;;;;;;;32.40;23.10;;;11.80;40.10;;;;;;5134286;27;20201;-57
2022/03/24 04:23:25;;;;;;;29.02;23.30;;;11.70;40.60;;;;;;5134224;27;20290;-57
2022/03/24 04:25:52;;;;;;;33.97;23.92;;;11.60;40.50;;;;;;5132483;27;20230;-57
2022/03/24 04:28:19;;;;;;;30.25;22.30;;;11.40;41.20;;;;;;5133921;27;20202;-57
2022/03/24 04:30:46;;;;;;;31.80;24.50;;;11.40;41.30;;;;;;5134040;27;20633;-57
2022/03/24 04:33:13;;;;;;;33.25;24.13;;;11.30;41.60;;;;;;5134021;27;20213;-57
2022/03/24 04:35:41;;;;;;;31.77;23.63;;;11.30;41.50;;;;;;5133895;27;20235;-57
2022/03/24 04:38:08;;;;;;;31.00;22.67;;;11.30;41.50;;;;;;5133966;27;20202;-57
2022/03/24 04:40:37;;;;;;;31.42;22.75;;;11.30;41.80;;;;;;5132359;27;20206;-57
2022/03/24 04:43:05;;;;;;;30.83;21.95;;;11.30;41.50;;;;;;5133788;27;20563;-57
2022/03/24 04:45:33;;;;;;;33.90;24.00;;;11.30;41.40;;;;;;5133949;27;20230;-57
2022/03/24 04:48:01;;;;;;;29.00;21.90;;;11.30;41.40;;;;;;5133848;27;20205;-57
2022/03/24 04:50:29;;;;;;;30.90;22.63;;;11.30;41.30;;;;;;5133870;27;20210;-57
2022/03/24 04:52:57;;;;;;;29.13;22.13;;;11.30;41.30;;;;;;5133621;27;20563;-57
2022/03/24 04:55:24;;;;;;;32.90;22.38;;;11.30;41.20;;;;;;5132464;27;20238;-57
2022/03/24 04:57:52;;;;;;;29.00;22.95;;;11.30;41.30;;;;;;5133738;27;20199;-57
2022/03/24 05:00:19;;;;;;;33.33;21.63;;;11.30;41.40;;;;;;5138019;27;20203;-57
2022/03/24 05:02:47;;;;;;;29.60;23.27;;;11.20;41.30;;;;;;5138078;27;20205;-57
2022/03/24 05:05:15;;;;;;;34.33;24.25;;;11.20;41.30;;;;;;5137833;27;20720;-57
2022/03/24 05:07:42;;;;;;;32.92;21.63;;;11.30;41.30;;;;;;5137704;27;20652;-57
2022/03/24 05:10:10;;;;;;;27.83;19.77;;;11.30;41.30;;;;;;5136580;27;20202;-57
2022/03/24 05:12:39;;;;;;;33.92;23.08;;;11.20;41.20;;;;;;5137708;27;20680;-57
2022/03/24 05:15:10;;;;;;;29.92;20.65;;;11.30;41.00;;;;;;5137667;27;20199;-58
2022/03/24 05:17:37;;;;;;;31.10;22.65;;;11.30;40.80;;;;;;5137841;27;20586;-59
2022/03/24 05:20:07;;;;;;;33.53;23.42;;;11.30;40.90;;;;;;5137518;27;20293;-58
2022/03/24 05:22:34;;;;;;;30.60;22.65;;;11.30;41.00;;;;;;5137674;27;20203;-58
2022/03/24 05:25:01;;;;;;;32.85;23.05;;;11.30;40.80;;;;;;5136086;27;20233;-57
2022/03/24 05:27:28;;;;;;;31.00;22.90;;;11.30;42.00;;;;;;5137131;27;20222;-57
2022/03/24 05:29:55;;;;;;;27.98;21.10;;;11.30;41.10;;;;;;5137409;27;20226;-58
2022/03/24 05:32:23;;;;;;;32.90;25.33;;;11.30;40.70;;;;;;5137565;27;20523;-57
2022/03/24 05:34:50;;;;;;;30.58;23.63;;;11.30;41.00;;;;;;5137386;27;20455;-57
2022/03/24 05:37:17;;;;;;;31.33;21.58;;;11.30;42.00;;;;;;5137352;27;20203;-57
2022/03/24 05:39:44;;;;;;;31.98;22.77;;;11.20;41.70;;;;;;5135911;27;20290;-57
2022/03/24 05:42:11;;;;;;;31.85;22.83;;;11.20;41.50;;;;;;5137151;27;20281;-58
2022/03/24 05:44:38;;;;;;;32.05;23.50;;;11.20;41.30;;;;;;5137002;27;20199;-57
2022/03/24 05:47:06;;;;;;;28.65;20.83;;;11.20;41.20;;;;;;5137009;27;20646;-57
2022/03/24 05:49:35;;;;;;;30.08;21.63;;;11.20;41.10;;;;;;5136926;27;20206;-57
2022/03/24 05:52:02;;;;;;;29.73;22.98;;;11.20;41.20;;;;;;5137010;27;20294;-57
2022/03/24 05:54:29;;;;;;;30.25;21.55;;;11.10;41.30;;;;;;5135637;27;20305;-57
2022/03/24 05:56:57;;;;;;;27.98;22.20;;;11.10;42.80;;;;;;5136912;27;20213;-57
2022/03/24 05:59:23;;;;;;;32.88;22.02;;;11.00;42.60;;;;;;5136627;27;20202;-57
2022/03/24 06:01:51;;;;;;;31.88;21.25;;;11.10;42.70;;;;;;5136683;27;20205;-58
2022/03/24 06:04:19;;;;;;;26.83;21.98;;;11.10;43.30;;;;;;5136895;27;20605;-57
2022/03/24 06:06:53;;;;;;;26.95;22.13;;;11.10;43.40;;;;;;5136697;27;20227;-57
2022/03/24 06:09:22;;;;;;;29.63;21.00;;;10.90;46.10;;;;;;5135210;27;20392;-58
2022/03/24 06:11:49;;;;;;;27.75;21.58;;;10.60;47.00;;;;;;5135814;27;20195;-57
2022/03/24 06:14:16;;;;;;;31.48;22.65;;;10.30;48.10;;;;;;5136425;27;20207;-57
2022/03/24 06:16:43;;;;;;;34.97;22.55;;;10.00;48.80;;;;;;5136603;27;20287;-57
2022/03/24 06:19:11;;;;;;;29.02;23.05;;;10.00;46.60;;;;;;5136510;27;20207;-57
2022/03/24 06:21:38;;;;;;;33.00;22.65;;;10.10;46.60;;;;;;5136442;27;20203;-57
2022/03/24 06:24:08;;;;;;;26.88;22.25;;;10.30;45.20;;;;;;5135135;27;20565;-57
2022/03/24 06:26:35;;;;;;;28.98;21.58;;;10.40;44.00;;;;;;5136273;27;20238;-57
2022/03/24 06:29:03;;;;;;;30.17;20.60;;;10.50;46.80;;;;;;5135922;27;20229;-57
2022/03/24 06:31:30;;;;;;;31.65;20.75;;;10.60;46.40;;;;;;5136224;27;20570;-57
2022/03/24 06:33:57;;;;;;;30.48;23.38;;;10.60;45.20;;;;;;5136238;27;20199;-57
2022/03/24 06:36:25;;;;;;;29.65;22.05;;;10.70;44.20;;;;;;5136069;27;20594;-57
2022/03/24 06:38:51;;;;;;;32.53;23.17;;;10.70;44.80;;;;;;5136110;27;20557;-57
2022/03/24 06:41:20;;;;;;;26.42;21.65;;;10.70;44.30;;;;;;5134759;27;20203;-57
2022/03/24 06:43:48;;;;;;;32.40;22.23;;;10.70;44.30;;;;;;5135825;27;20657;-57
2022/03/24 06:46:15;;;;;;;28.65;22.17;;;10.70;43.90;;;;;;5135843;27;20613;-57
2022/03/24 06:48:41;;;;;;;29.30;23.00;;;10.70;46.70;;;;;;5135912;27;20207;-57
2022/03/24 06:51:08;;;;;;;30.45;20.00;;;10.60;47.20;;;;;;5135844;27;20199;-57
2022/03/24 06:53:35;;;;;;;31.20;22.27;;;10.60;46.60;;;;;;5135899;27;20230;-57
2022/03/24 06:56:04;;;;;;;27.23;22.50;;;10.50;45.60;;;;;;5134398;27;20237;-57
2022/03/24 06:58:32;;;;;;;30.13;22.92;;;10.60;44.50;;;;;;5135401;27;20608;-57
2022/03/24 07:00:59;;;;;;;26.27;22.33;;;10.70;44.20;;;;;;5135739;27;20226;-57
2022/03/24 07:03:26;;;;;;;28.67;22.88;;;10.80;43.00;;;;;;5135638;27;20231;-57
2022/03/24 07:05:53;;;;;;;27.58;21.40;;;11.00;42.50;;;;;;5135527;27;20244;-57
2022/03/24 07:08:20;;;;;;;33.45;21.48;;;11.10;42.70;;;;;;5135678;27;20286;-57
2022/03/24 07:10:47;;;;;;;29.52;22.35;;;11.20;43.60;;;;;;5133998;27;20636;-57
2022/03/24 07:13:13;;;;;;;30.48;22.92;;;11.20;45.50;;;;;;5135279;27;20207;-57
2022/03/24 07:15:42;;;;;;;27.67;22.33;;;11.10;45.20;;;;;;5135417;27;20293;-58
2022/03/24 07:18:10;;;;;;;29.17;22.83;;;11.00;46.30;;;;;;5135487;27;20202;-58
2022/03/24 07:20:37;;;;;;;31.52;23.90;;;10.90;45.00;;;;;;5135405;27;20567;-57
2022/03/24 07:23:06;;;;;;;28.98;23.08;;;11.00;45.30;;;;;;5134823;27;20263;-57
2022/03/24 07:25:34;;;;;;;30.08;24.52;;;11.10;45.80;;;;;;5133877;27;20259;-57
2022/03/24 07:28:01;;;;;;;26.00;20.65;;;11.00;46.70;;;;;;5134923;27;20203;-57
2022/03/24 07:30:28;;;;;;;30.90;23.17;;;10.90;47.10;;;;;;5134872;27;20321;-57
2022/03/24 07:32:57;;;;;;;31.70;25.38;;;10.90;47.70;;;;;;5134902;27;20203;-57
2022/03/24 07:35:25;;;;;;;33.50;23.50;;;10.90;47.50;;;;;;5134945;27;20199;-57
2022/03/24 07:37:53;;;;;;;31.77;22.88;;;10.90;46.60;;;;;;5134771;27;20205;-57
2022/03/24 07:40:22;;;;;;;29.88;23.70;;;10.90;46.40;;;;;;5133502;27;20547;-57
2022/03/24 07:42:52;;;;;;;31.30;23.80;;;11.00;46.70;;;;;;5134611;27;20281;-57
2022/03/24 07:45:19;;;;;;;30.77;23.88;;;11.20;46.20;;;;;;5134672;27;20210;-58
2022/03/24 07:48:10;;;;;;;30.98;24.40;;;11.30;45.90;;;;;;5134641;27;20207;-57
2022/03/24 07:50:39;;;;;;;29.98;24.38;;;11.40;44.90;;;;;;5134645;27;20199;-57
2022/03/24 07:53:17;;;;;;;31.65;24.83;;;11.40;45.00;;;;;;5134574;27;20247;-57
2022/03/24 07:55:46;;;;;;;29.40;23.70;;;11.40;44.80;;;;;;5133146;27;20202;-57
2022/03/24 07:58:16;;;;;;;32.40;24.23;;;11.70;44.40;;;;;;5134394;27;20212;-57
2022/03/24 08:00:43;;;;;;;28.88;23.48;;;11.80;44.00;;;;;;5134465;27;20654;-57
2022/03/24 08:03:13;;;;;;;30.17;22.38;;;11.80;44.20;;;;;;5134511;27;20203;-57
2022/03/24 08:05:40;;;;;;;33.00;25.25;;;12.00;43.50;;;;;;5134220;27;20226;-57
2022/03/24 08:08:08;;;;;;;31.80;24.65;;;12.10;43.20;;;;;;5134436;27;20625;-59
2022/03/24 08:10:35;;;;;;;31.88;24.70;;;12.20;43.90;;;;;;5133172;27;20199;-59
2022/03/24 08:13:03;;;;;;;32.10;25.15;;;12.40;45.00;;;;;;5134121;27;20282;-59
2022/03/24 08:15:29;;;;;;;33.65;24.95;;;12.60;44.80;;;;;;5134071;27;20195;-59
2022/03/24 08:17:56;;;;;;;34.75;25.80;;;12.80;45.20;;;;;;5134311;27;20675;-59
2022/03/24 08:20:25;;;;;;;32.25;25.95;;;12.90;45.30;;;;;;5134349;27;20237;-59
2022/03/24 08:22:52;;;;;;;30.15;25.70;;;12.90;44.90;;;;;;5134104;27;20203;-59
2022/03/24 08:25:19;;;;;;;32.58;23.42;;;13.00;44.70;;;;;;5132673;27;20231;-59
2022/03/24 08:27:46;;;;;;;32.70;24.25;;;13.10;44.60;;;;;;5133838;27;20198;-59
2022/03/24 08:30:13;;;;;;;33.85;25.92;;;13.10;44.60;;;;;;5133762;27;20227;-59
2022/03/24 08:32:40;;;;;;;31.95;25.10;;;13.20;44.40;;;;;;5133709;27;20207;-59
2022/03/24 08:35:08;;;;;;;32.60;25.02;;;13.20;44.40;;;;;;5133614;27;20294;-58
2022/03/24 08:37:37;;;;;;;32.97;25.35;;;13.30;44.30;;;;;;5133852;27;20230;-58
2022/03/24 08:40:05;;;;;;;38.05;26.95;;;13.30;44.30;;;;;;5132430;27;20661;-59
2022/03/24 08:42:32;;;;;;;39.40;27.63;;;13.40;44.30;;;;;;5133730;27;20267;-59
2022/03/24 08:44:59;;;;;;;32.65;26.35;;;13.40;44.10;;;;;;5133675;27;20252;-58
2022/03/24 08:47:26;;;;;;;34.72;25.63;;;13.40;44.60;;;;;;5133780;27;20230;-59
2022/03/24 08:49:53;;;;;;;33.72;24.05;;;13.40;44.50;;;;;;5133823;27;20308;-59
2022/03/24 08:52:21;;;;;;;34.45;25.55;;;13.40;44.20;;;;;;5133794;27;20245;-59
2022/03/24 08:54:50;;;;;;;31.88;25.77;;;13.40;44.10;;;;;;5132360;27;20199;-59
2022/03/24 08:57:20;;;;;;;34.13;25.55;;;13.40;43.90;;;;;;5133571;27;20245;-59
2022/03/24 08:59:48;;;;;;;37.00;25.85;;;13.40;44.00;;;;;;5133620;27;20285;-59
2022/03/24 09:02:15;;;;;;;39.80;26.95;;;13.40;44.00;;;;;;5133777;27;20564;-59
2022/03/24 09:04:41;;;;;;;34.17;25.67;;;13.50;43.90;;;;;;5133637;27;20608;-59
2022/03/24 09:07:08;;;;;;;33.58;25.17;;;13.50;43.90;;;;;;5133570;27;20230;-59
2022/03/24 09:09:35;;;;;;;32.72;22.90;;;13.60;43.90;;;;;;5132198;27;20199;-59
2022/03/24 09:12:04;;;;;;;35.53;26.67;;;13.60;43.80;;;;;;5133621;27;20205;-59
2022/03/24 09:14:31;;;;;;;34.78;26.27;;;13.70;43.60;;;;;;5133399;27;20282;-59
2022/03/24 09:16:58;;;;;;;35.05;26.35;;;13.80;43.50;;;;;;5133597;27;20251;-59
2022/03/24 09:19:24;;;;;;;36.25;26.38;;;13.90;43.20;;;;;;5133466;27;20206;-59
2022/03/24 09:21:51;;;;;;;34.80;26.30;;;13.90;43.00;;;;;;5133517;27;20207;-59
2022/03/24 09:24:18;;;;;;;36.35;26.75;;;14.00;42.80;;;;;;5131914;27;20315;-59
2022/03/24 09:26:45;;;;;;;30.83;26.42;;;14.10;42.70;;;;;;5133553;27;20353;-59
2022/03/24 09:29:14;;;;;;;31.35;24.88;;;14.10;42.70;;;;;;5133123;27;20226;-59
2022/03/24 09:31:41;;;;;;;34.50;25.75;;;14.20;42.90;;;;;;5133407;27;20203;-59
2022/03/24 09:34:09;;;;;;;28.73;24.48;;;14.30;42.80;;;;;;5133411;27;20203;-59
2022/03/24 09:36:36;;;;;;;29.73;24.63;;;14.40;42.60;;;;;;5133249;27;20666;-59
2022/03/24 09:39:03;;;;;;;31.48;26.40;;;14.50;42.60;;;;;;5132497;27;20649;-59
2022/03/24 09:41:31;;;;;;;31.30;26.83;;;14.60;42.20;;;;;;5133163;27;20300;-59
2022/03/24 09:43:58;;;;;;;37.35;25.17;;;14.70;42.20;;;;;;5133245;27;20206;-59
2022/03/24 09:46:28;;;;;;;36.13;26.70;;;14.80;41.60;;;;;;5137144;27;20227;-59
2022/03/24 09:48:56;;;;;;;34.75;26.48;;;14.80;41.50;;;;;;5137115;27;20206;-59
2022/03/24 09:51:23;;;;;;;31.67;26.52;;;14.90;41.50;;;;;;5136900;27;20246;-59
2022/03/24 09:53:50;;;;;;;31.92;24.45;;;15.00;41.50;;;;;;5136988;27;20206;-59
2022/03/24 09:56:17;;;;;;;34.33;25.88;;;15.10;40.80;;;;;;5135651;27;20237;-59
2022/03/24 09:58:44;;;;;;;33.45;25.65;;;15.10;40.20;;;;;;5136771;27;20202;-59
2022/03/24 10:01:13;;;;;;;29.58;25.50;;;15.20;40.30;;;;;;5136780;27;20214;-59
2022/03/24 10:04:04;;;;;;;35.67;26.52;;;15.30;40.00;;;;;;5136762;27;20199;-59
2022/03/24 10:06:32;;;;;;;33.88;26.92;;;15.40;39.10;;;;;;5136656;27;20254;-59
2022/03/24 10:08:59;;;;;;;29.58;23.95;;;15.40;39.00;;;;;;5136540;27;20234;-59
2022/03/24 10:11:27;;;;;;;27.70;24.70;;;15.50;38.90;;;;;;5135896;27;20209;-59
2022/03/24 10:13:56;;;;;;;31.08;24.55;;;15.60;38.70;;;;;;5136453;27;20454;-59
2022/03/24 10:16:43;;;;;;;28.43;24.93;;;15.70;38.70;;;;;;5136426;27;20199;-59
2022/03/24 10:19:14;;;;;;;32.20;25.03;;;15.80;38.50;;;;;;5136415;27;20471;-59
2022/03/24 10:21:43;;;;;;;30.17;24.80;;;15.90;38.00;;;;;;5136448;27;20505;-59
2022/03/24 10:24:12;;;;;;;29.67;24.67;;;16.10;37.60;;;;;;5134884;27;20879;-59
2022/03/24 10:26:45;;;;;;;31.73;26.47;;;16.20;37.40;;;;;;5136152;27;20575;-59
2022/03/24 10:29:13;;;;;;;28.40;23.27;;;16.40;37.30;;;;;;5135883;27;20905;-59
2022/03/24 10:31:41;;;;;;;29.97;24.87;;;16.50;37.60;;;;;;5136311;27;20454;-59
2022/03/24 10:34:10;;;;;;;32.17;25.70;;;16.60;37.20;;;;;;5136243;27;20453;-59
2022/03/24 10:36:41;;;;;;;29.60;24.63;;;16.80;37.00;;;;;;5136127;27;20514;-59
2022/03/24 10:39:09;;;;;;;29.17;23.67;;;16.90;36.70;;;;;;5134771;27;20810;-59
2022/03/24 10:41:37;;;;;;;34.37;25.60;;;17.10;36.50;;;;;;5136146;27;20452;-59
2022/03/24 10:44:07;;;;;;;28.60;25.03;;;17.10;35.40;;;;;;5135891;27;20455;-59
2022/03/24 10:46:35;;;;;;;27.80;24.40;;;17.20;34.90;;;;;;5135900;27;20491;-59
2022/03/24 10:49:17;;;;;;;28.67;23.23;;;17.30;34.90;;;;;;5136021;27;20452;-59
2022/03/24 10:51:48;;;;;;;30.63;24.57;;;17.40;34.70;;;;;;5135782;27;20448;-59
2022/03/24 10:54:24;;;;;;;32.40;24.80;;;17.50;34.60;;;;;;5134403;27;20935;-59
2022/03/24 10:56:57;;;;;;;31.00;24.70;;;17.70;33.90;;;;;;5135253;27;20523;-59
2022/03/24 10:59:28;;;;;;;29.40;24.27;;;17.80;33.30;;;;;;5135738;27;20437;-59
2022/03/24 11:01:56;;;;;;;30.83;23.60;;;17.90;32.30;;;;;;5135601;27;20479;-59
2022/03/24 11:04:23;;;;;;;27.47;23.20;;;18.00;32.90;;;;;;5135569;27;20482;-59
2022/03/24 11:06:52;;;;;;;30.70;26.47;;;18.10;32.50;;;;;;5135686;27;20480;-59
2022/03/24 11:09:24;;;;;;;27.63;24.60;;;18.30;31.90;;;;;;5134243;27;20452;-59
2022/03/24 11:12:26;;;;;;;29.03;24.77;;;18.40;32.30;;;;;;5135426;27;20441;-59
2022/03/24 11:14:55;;;;;;;28.50;24.73;;;18.60;31.00;;;;;;5135261;27;20470;-59
2022/03/24 11:17:24;;;;;;;28.80;24.97;;;18.60;31.50;;;;;;5135367;27;20452;-59
2022/03/24 11:19:56;;;;;;;25.97;23.17;;;18.80;31.20;;;;;;5135553;27;20456;-59
2022/03/24 11:22:37;;;;;;;29.53;26.07;;;19.10;30.30;;;;;;5135362;27;20451;-59
2022/03/24 11:25:04;;;;;;;26.73;23.83;;;20.40;29.50;;;;;;5133817;27;20499;-57
2022/03/24 11:27:32;;;;;;;27.57;24.80;;;22.30;27.90;;;;;;5134990;27;20590;-57
2022/03/24 11:30:01;;;;;;;27.67;25.00;;;24.10;25.30;;;;;;5134767;27;20484;-57
2022/03/24 11:32:28;;;;;;;26.47;23.60;;;25.70;24.20;;;;;;5135076;27;20444;-57
2022/03/24 11:34:55;;;;;;;25.40;22.90;;;27.00;22.90;;;;;;5135063;27;20868;-57
2022/03/24 11:37:25;;;;;;;26.80;23.90;;;28.00;21.60;;;;;;5134895;27;20935;-57
2022/03/24 11:40:05;;;;;;;26.37;23.60;;;28.80;20.90;;;;;;5133407;27;20931;-57
2022/03/24 11:42:34;;;;;;;25.57;23.23;;;29.20;19.70;;;;;;5134724;27;20447;-57
2022/03/24 11:45:04;;;;;;;23.87;21.50;;;29.30;19.60;;;;;;5134529;27;20544;-57
2022/03/24 11:47:50;;;;;;;26.80;24.00;;;29.40;19.10;;;;;;5134689;27;20531;-57
2022/03/24 11:50:17;;;;;;;27.10;24.47;;;29.30;18.60;;;;;;5134493;27;20941;-57
2022/03/24 11:52:46;;;;;;;25.13;22.63;;;28.80;18.90;;;;;;5134584;27;20579;-57
2022/03/24 11:55:16;;;;;;;25.20;22.70;;;28.50;19.40;;;;;;5133284;27;20443;-57
2022/03/24 11:57:59;;;;;;;25.33;22.93;;;28.20;19.30;;;;;;5134535;27;20937;-57
2022/03/24 12:00:47;;;;;;;21.90;19.80;;;27.70;19.20;;;;;;5134545;27;20470;-57
2022/03/24 12:03:42;;;;;;;24.87;22.30;;;27.40;18.00;;;;;;5134436;27;20457;-57
2022/03/24 12:06:10;;;;;;;23.80;21.70;;;27.10;18.80;;;;;;5134613;27;20840;-57
2022/03/24 12:09:04;;;;;;;26.07;23.43;;;26.70;18.50;;;;;;5133378;27;20490;-57
2022/03/24 12:11:42;;;;;;;21.43;19.13;;;26.30;19.50;;;;;;5134245;27;20483;-57
2022/03/24 12:14:12;;;;;;;24.57;22.10;;;26.10;19.80;;;;;;5134144;27;20449;-57
2022/03/24 12:16:41;;;;;;;24.50;22.30;;;25.70;18.80;;;;;;5134347;27;20444;-57
2022/03/24 12:19:35;;;;;;;21.80;19.60;;;25.40;19.40;;;;;;5134337;27;20535;-57
2022/03/24 12:22:02;;;;;;;24.40;22.03;;;25.00;19.50;;;;;;5134150;27;20455;-58
2022/03/24 12:24:37;;;;;;;25.60;22.90;;;24.40;22.20;;;;;;5132732;27;20551;-57
2022/03/24 12:27:06;;;;;;;24.53;22.17;;;23.90;21.40;;;;;;5134018;27;20486;-57
2022/03/24 12:29:33;;;;;;;22.67;20.37;;;23.70;20.50;;;;;;5133715;27;20515;-57
2022/03/24 12:32:03;;;;;;;25.30;22.70;;;23.50;21.80;;;;;;5133974;27;20453;-57
2022/03/24 12:34:32;;;;;;;23.63;21.23;;;23.40;21.40;;;;;;5133985;27;20484;-57
2022/03/24 12:36:59;;;;;;;23.40;21.20;;;23.60;21.70;;;;;;5133921;27;20803;-58